Huvudsida
METAR-TAF:

METAR-TAF

Flygplatser :

Ouagadougou Airport

Ouagadougou, Burkina Faso

latitud: 12-21N, longitud: 001-31W, höjd: 316 m

Aktuellt väderrapport

Denna rapport gjordes för 45 minuter sedan, klockan 12:00 UTC
Vind 4 kt från nord
Temperatur 36°C
Fuktighet 31%
Tryck 1011 hPa
Sikt 10 km eller mer
Inga moln under 1 500 m eller inga cumulonimbus

METAR: DFFD 221200Z 36004KT CAVOK 36/16 Q1011 NOSIG

Tid: 12:45 (12:45 UTC)

Väderprognos

Denna rapport gjordes för 1 timme och 45 minuter sedan, klockan 11:00 UTC
Prognos gäller från 22 kl. 12 UTC till 23 kl. 18 UTC
Vind 8 kt varierande vindriktning
Sikt: 8000 m
Sannolikhet 30% :
Temporärt
från 22 kl. 16 UTC till 22 kl. 24 UTC
Få moln på en höjd av 2600 ft
Få moln på en höjd av 3600 ft, Cumulonimbus.
åska

TAF: DFFD 221100Z 2212/2318 VRB08KT 8000 NSC PROB30 TEMPO 2216/2224 TS FEW026 FEW036CB

Aktuella väderrapporter och prognoser från 4000 flygplatser (METAR- och TAF-rapporter).

De tillgängliga stationerna syns som gula och röda prickar på kartan.

För musen över prickarna för att se namnen på stationerna.

Klicka sedan för att få väderrapporter och prognoser.

För att ändra kartan: Klicka på de gröna knapparna med ett svart kors på för att zooma in; den gröna knappen med ett streck på för att zooma ut; eller på de gröna pilarna för angränsande kartor.


METAR-TAF: